createdAt,value
2023-03-22T00:01:32.448Z,96615.75
2023-03-22T00:03:59.985Z,96628.94
2023-03-22T00:06:26.942Z,96633.13
2023-03-22T00:08:54.272Z,96637.13
2023-03-22T00:11:24.318Z,96622.25
2023-03-22T00:13:52.707Z,96629.88
2023-03-22T00:16:20.435Z,96626.34
2023-03-22T00:18:47.557Z,96612.81
2023-03-22T00:21:16.042Z,96620.81
2023-03-22T00:23:44.153Z,96621.25
2023-03-22T00:26:13.878Z,96618.00
2023-03-22T00:28:41.635Z,96600.94
2023-03-22T00:31:09.254Z,96616.28
2023-03-22T00:33:36.371Z,96610.91
2023-03-22T00:36:09.400Z,96610.75
2023-03-22T00:38:43.673Z,96610.13
2023-03-22T00:41:16.911Z,96607.31
2023-03-22T00:43:46.751Z,96609.34
2023-03-22T00:46:15.032Z,96607.50
2023-03-22T00:48:42.401Z,96605.81
2023-03-22T00:51:10.277Z,96613.09
2023-03-22T00:53:42.386Z,96612.06
2023-03-22T00:56:14.200Z,96606.88
2023-03-22T00:59:01.642Z,96620.13
2023-03-22T01:01:30.205Z,96617.53
2023-03-22T01:03:57.406Z,96618.94
2023-03-22T01:06:24.424Z,96618.94
2023-03-22T01:08:51.747Z,96594.13
2023-03-22T01:11:18.913Z,96602.41
2023-03-22T01:13:47.997Z,96600.75
2023-03-22T01:16:15.344Z,96609.25
2023-03-22T01:18:42.324Z,96613.72
2023-03-22T01:21:10.956Z,96610.72
2023-03-22T01:23:38.134Z,96603.44
2023-03-22T01:26:05.724Z,96613.47
2023-03-22T01:28:32.834Z,96601.66
2023-03-22T01:31:03.146Z,96616.66
2023-03-22T01:33:30.700Z,96617.41
2023-03-22T01:35:57.939Z,96602.41
2023-03-22T01:38:24.896Z,96608.06
2023-03-22T01:40:58.744Z,96607.25
2023-03-22T01:43:27.882Z,96607.47
2023-03-22T01:45:57.241Z,96605.22
2023-03-22T01:48:46.326Z,96605.13
2023-03-22T01:51:27.714Z,96606.66
2023-03-22T01:54:42.935Z,96595.94
2023-03-22T01:57:28.310Z,96606.34
2023-03-22T02:00:00.731Z,96612.66
2023-03-22T02:02:41.538Z,96617.84
2023-03-22T02:05:22.308Z,96614.25
2023-03-22T02:07:50.600Z,96616.75
2023-03-22T02:10:21.286Z,96617.06
2023-03-22T02:13:10.571Z,96612.94
2023-03-22T02:16:00.847Z,96606.66
2023-03-22T02:19:03.281Z,96537.63
2023-03-22T02:21:42.460Z,96604.34
2023-03-22T02:24:46.840Z,96605.91
2023-03-22T02:28:01.756Z,96570.38
2023-03-22T02:30:59.957Z,96601.22
2023-03-22T02:33:30.074Z,96599.38
2023-03-22T02:36:22.358Z,96603.72
2023-03-22T02:39:09.016Z,96608.66
2023-03-22T02:41:46.616Z,96598.13
2023-03-22T02:44:27.116Z,96610.72
2023-03-22T02:47:08.110Z,96611.94
2023-03-22T02:49:41.196Z,96601.34
2023-03-22T02:52:25.345Z,96620.88
2023-03-22T02:54:58.145Z,96608.16
2023-03-22T02:57:43.510Z,96602.59
2023-03-22T03:00:14.142Z,96599.75
2023-03-22T03:02:46.972Z,96605.03
2023-03-22T03:05:16.192Z,96607.50
2023-03-22T03:07:51.025Z,96609.56
2023-03-22T03:10:20.910Z,96565.69
2023-03-22T03:12:48.016Z,96609.38
2023-03-22T03:15:18.723Z,96607.72
2023-03-22T03:17:51.602Z,96612.06
2023-03-22T03:20:34.453Z,96618.00
2023-03-22T03:23:07.355Z,96619.22
2023-03-22T03:25:46.272Z,96614.88
2023-03-22T03:28:23.098Z,96614.94
2023-03-22T03:31:10.485Z,96600.97
2023-03-22T03:33:55.241Z,96594.06
2023-03-22T03:36:23.375Z,96593.13
2023-03-22T03:38:54.204Z,96594.47
2023-03-22T03:41:25.621Z,96588.69
2023-03-22T03:43:54.268Z,96574.38
2023-03-22T03:46:21.342Z,96576.31
2023-03-22T03:48:51.616Z,96566.91
2023-03-22T03:51:19.271Z,96578.16
2023-03-22T03:53:47.200Z,96571.41
2023-03-22T03:56:14.495Z,96575.22
2023-03-22T03:58:46.500Z,96594.41
2023-03-22T04:01:13.470Z,96603.00
2023-03-22T04:03:55.496Z,96612.00
2023-03-22T04:06:34.700Z,96607.34
2023-03-22T04:09:08.690Z,96587.88
2023-03-22T04:11:40.382Z,96597.22
2023-03-22T04:14:07.478Z,96623.88
2023-03-22T04:16:34.444Z,96617.06
2023-03-22T04:19:01.401Z,96618.16
2023-03-22T04:21:29.136Z,96617.63
2023-03-22T04:23:58.711Z,96599.69
2023-03-22T04:26:28.400Z,96615.53
2023-03-22T04:29:09.849Z,96620.22
2023-03-22T04:31:41.090Z,96629.41
2023-03-22T04:34:21.771Z,96623.56
2023-03-22T04:36:53.038Z,96616.72
2023-03-22T04:39:27.711Z,96620.47
2023-03-22T04:42:15.338Z,96617.78
2023-03-22T04:44:43.505Z,96631.25
2023-03-22T04:47:10.647Z,96629.09
2023-03-22T04:49:38.033Z,96629.94
2023-03-22T04:52:05.284Z,96633.09
2023-03-22T04:54:35.225Z,96639.97
2023-03-22T04:57:03.921Z,96643.31
2023-03-22T04:59:36.947Z,96635.69
2023-03-22T05:02:04.038Z,96625.56
2023-03-22T05:04:38.205Z,96614.63
2023-03-22T05:07:13.518Z,96605.78
2023-03-22T05:09:46.755Z,96590.03
2023-03-22T05:12:15.082Z,96643.69
2023-03-22T05:15:00.189Z,96658.59
2023-03-22T05:17:33.197Z,96644.84
2023-03-22T05:20:09.367Z,96672.28
2023-03-22T05:22:40.594Z,96641.41
2023-03-22T05:25:10.634Z,96670.94
2023-03-22T05:27:40.017Z,96681.31
2023-03-22T05:30:31.362Z,96670.28
2023-03-22T05:33:04.903Z,96687.00
2023-03-22T05:35:39.234Z,96685.84
2023-03-22T05:38:08.685Z,96688.44
2023-03-22T05:40:38.339Z,96687.44
2023-03-22T05:43:05.788Z,96698.72
2023-03-22T05:45:35.379Z,96697.72
2023-03-22T05:48:13.096Z,96704.34
2023-03-22T05:50:41.106Z,96683.94
2023-03-22T05:53:08.904Z,96706.25
2023-03-22T05:55:50.323Z,96704.47
2023-03-22T05:58:19.233Z,96709.06
2023-03-22T06:00:49.976Z,96712.28
2023-03-22T06:03:25.701Z,96699.97
2023-03-22T06:06:00.985Z,96717.19
2023-03-22T06:08:40.604Z,96699.78
2023-03-22T06:11:08.373Z,96703.84
2023-03-22T06:13:36.767Z,96723.53
2023-03-22T06:16:05.669Z,96706.31
2023-03-22T06:18:33.346Z,96712.41
2023-03-22T06:21:08.365Z,96704.75
2023-03-22T06:23:35.551Z,96719.47
2023-03-22T06:26:02.649Z,96717.31
2023-03-22T06:28:31.051Z,96719.97
2023-03-22T06:31:05.371Z,96667.44
2023-03-22T06:33:51.211Z,96727.94
2023-03-22T06:36:26.892Z,96716.72
2023-03-22T06:39:20.497Z,96730.50
2023-03-22T06:41:48.696Z,96736.31
2023-03-22T06:44:16.485Z,96742.25
2023-03-22T06:46:52.380Z,96732.00
2023-03-22T06:49:39.559Z,96742.53
2023-03-22T06:52:06.624Z,96748.88
2023-03-22T06:54:34.996Z,96762.94
2023-03-22T06:57:02.040Z,96756.84
2023-03-22T06:59:29.104Z,96760.50
2023-03-22T07:01:56.209Z,96749.47
2023-03-22T07:04:24.177Z,96759.25
2023-03-22T07:06:52.116Z,96760.94
2023-03-22T07:09:19.637Z,96748.34
2023-03-22T07:11:48.905Z,96751.19
2023-03-22T07:14:16.120Z,96753.78
2023-03-22T07:17:07.002Z,96755.75
2023-03-22T07:19:34.060Z,96757.28
2023-03-22T07:22:06.642Z,96768.47
2023-03-22T07:24:40.346Z,96760.59
2023-03-22T07:27:11.852Z,96761.69
2023-03-22T07:29:38.939Z,96767.38
2023-03-22T07:32:07.517Z,96751.31
2023-03-22T07:34:52.477Z,96771.78
2023-03-22T07:37:19.772Z,96774.34
2023-03-22T07:39:46.743Z,96770.53
2023-03-22T07:42:13.769Z,96771.63
2023-03-22T07:44:47.319Z,96770.88
2023-03-22T07:47:34.139Z,96760.03
2023-03-22T07:50:26.931Z,96769.31
2023-03-22T07:52:56.722Z,96739.16
2023-03-22T07:55:24.055Z,96751.25
2023-03-22T07:57:51.324Z,96759.13
2023-03-22T08:00:19.150Z,96760.53
2023-03-22T08:02:56.327Z,96764.84
2023-03-22T08:05:58.914Z,96778.75
2023-03-22T08:08:26.513Z,96769.47
2023-03-22T08:10:53.956Z,96791.00
2023-03-22T08:13:20.983Z,96793.97
2023-03-22T08:15:48.099Z,96787.75
2023-03-22T08:18:15.577Z,96795.72
2023-03-22T08:20:45.731Z,96797.41
2023-03-22T08:23:18.153Z,96808.53
2023-03-22T08:25:58.559Z,96796.75
2023-03-22T08:28:26.634Z,96728.31
2023-03-22T08:30:54.285Z,96802.03
2023-03-22T08:33:23.776Z,96816.50
2023-03-22T08:35:52.042Z,96804.47
2023-03-22T08:38:19.747Z,96812.38
2023-03-22T08:40:50.974Z,96816.00
2023-03-22T08:43:22.210Z,96824.50
2023-03-22T08:45:49.199Z,96825.38
2023-03-22T08:48:19.586Z,96814.66
2023-03-22T08:51:10.685Z,96820.25
2023-03-22T08:53:52.060Z,96815.81
2023-03-22T08:56:41.878Z,96813.03
2023-03-22T08:59:22.428Z,96784.66
2023-03-22T09:02:09.971Z,96817.19
2023-03-22T09:04:36.956Z,96816.06
2023-03-22T09:07:03.958Z,96819.94
2023-03-22T09:09:31.011Z,96817.91
2023-03-22T09:11:58.457Z,96825.88
2023-03-22T09:14:25.703Z,96817.72
2023-03-22T09:16:53.990Z,96810.31
2023-03-22T09:19:21.249Z,96815.78
2023-03-22T09:21:48.583Z,96810.97
2023-03-22T09:24:20.763Z,96809.69
2023-03-22T09:26:52.975Z,96804.06
2023-03-22T09:29:20.631Z,96809.28
2023-03-22T09:31:49.035Z,96794.84
2023-03-22T09:34:19.968Z,96795.44
2023-03-22T09:36:47.550Z,96784.94
2023-03-22T09:39:17.829Z,96800.72
2023-03-22T09:41:53.976Z,96797.19
2023-03-22T09:44:34.937Z,96776.00
2023-03-22T09:47:07.799Z,96790.38
2023-03-22T09:49:52.707Z,96788.75
2023-03-22T09:52:20.467Z,96775.69
2023-03-22T09:54:47.578Z,96774.31
2023-03-22T09:57:29.225Z,96781.81
2023-03-22T09:59:58.918Z,96795.91
2023-03-22T10:02:33.329Z,96786.75
2023-03-22T10:05:00.299Z,96798.31
2023-03-22T10:08:04.353Z,96800.72
2023-03-22T10:10:31.798Z,96777.06
2023-03-22T10:13:15.352Z,96803.09
2023-03-22T10:16:04.261Z,96758.34
2023-03-22T10:18:41.673Z,96800.78
2023-03-22T10:21:11.387Z,96802.69
2023-03-22T10:23:42.275Z,96789.00
2023-03-22T10:26:21.573Z,96805.84
2023-03-22T10:28:56.431Z,96790.81
2023-03-22T10:31:26.891Z,96791.41
2023-03-22T10:33:59.670Z,96790.63
2023-03-22T10:36:31.552Z,96786.84
2023-03-22T10:39:04.131Z,96767.97
2023-03-22T10:41:33.822Z,96781.22
2023-03-22T10:44:03.185Z,96786.16
2023-03-22T10:46:37.247Z,96783.44
2023-03-22T10:49:07.305Z,96775.63
2023-03-22T10:51:43.445Z,96770.66
2023-03-22T10:54:15.055Z,96763.25
2023-03-22T10:56:43.220Z,96783.59
2023-03-22T10:59:43.208Z,96781.09
2023-03-22T11:02:19.231Z,96779.44
2023-03-22T11:04:52.691Z,96781.47
2023-03-22T11:07:31.772Z,96777.03
2023-03-22T11:10:10.700Z,96777.66
2023-03-22T11:12:43.823Z,96781.13
2023-03-22T11:15:32.845Z,96780.13
2023-03-22T11:18:07.935Z,96774.34
2023-03-22T11:20:35.361Z,96755.13
2023-03-22T11:23:05.315Z,96761.56
2023-03-22T11:25:36.877Z,96762.56
2023-03-22T11:28:23.119Z,96767.50
2023-03-22T11:31:12.787Z,96767.25
2023-03-22T11:34:06.356Z,96726.06
2023-03-22T11:36:43.825Z,96726.94
2023-03-22T11:39:12.382Z,96767.31
2023-03-22T11:41:40.724Z,96760.13
2023-03-22T11:44:29.052Z,96760.22
2023-03-22T11:47:01.838Z,96746.44
2023-03-22T11:49:56.445Z,96763.53
2023-03-22T11:52:27.449Z,96765.75
2023-03-22T11:54:56.181Z,96717.06
2023-03-22T11:57:30.311Z,96753.41
2023-03-22T12:00:06.976Z,96770.28
2023-03-22T12:02:58.229Z,96767.75
2023-03-22T12:05:34.089Z,96764.03
2023-03-22T12:08:27.706Z,96754.38
2023-03-22T12:11:07.718Z,96771.72
2023-03-22T12:13:52.872Z,96763.84
2023-03-22T12:16:28.576Z,96772.78
2023-03-22T12:19:13.467Z,96766.34
2023-03-22T12:21:41.638Z,96768.50
2023-03-22T12:24:26.806Z,96767.28
2023-03-22T12:26:58.184Z,96789.22
2023-03-22T12:29:27.141Z,96777.25
2023-03-22T12:31:54.186Z,96781.50
2023-03-22T12:34:26.185Z,96783.63
2023-03-22T12:36:56.953Z,96788.50
2023-03-22T12:39:42.659Z,96792.19
2023-03-22T12:42:24.672Z,96779.19
2023-03-22T12:45:05.056Z,96782.44
2023-03-22T12:47:41.893Z,96781.50
2023-03-22T12:50:31.833Z,96774.63
2023-03-22T12:52:59.214Z,96790.97
2023-03-22T12:55:31.378Z,96789.22
2023-03-22T12:57:58.674Z,96787.81
2023-03-22T13:00:33.349Z,96788.28
2023-03-22T13:03:10.418Z,96784.06
2023-03-22T13:05:38.024Z,96789.94
2023-03-22T13:08:05.613Z,96797.25
2023-03-22T13:10:32.944Z,96789.84
2023-03-22T13:13:33.954Z,96796.56
2023-03-22T13:16:02.921Z,96797.47
2023-03-22T13:18:35.836Z,96793.47
2023-03-22T13:21:16.621Z,96797.56
2023-03-22T13:24:00.972Z,96796.56
2023-03-22T13:26:32.653Z,96780.22
2023-03-22T13:29:08.024Z,96792.81
2023-03-22T13:31:42.958Z,96788.88
2023-03-22T13:34:18.037Z,96788.34
2023-03-22T13:36:56.726Z,96795.28
2023-03-22T13:39:27.419Z,96757.06
2023-03-22T13:42:06.086Z,96789.97
2023-03-22T13:44:39.050Z,96791.00
2023-03-22T13:47:28.536Z,96785.25
2023-03-22T13:50:02.550Z,96791.31
2023-03-22T13:52:37.249Z,96788.47
2023-03-22T13:55:17.486Z,96781.28
2023-03-22T13:57:59.068Z,96783.56
2023-03-22T14:00:32.224Z,96791.34
2023-03-22T14:03:18.224Z,96785.97
2023-03-22T14:05:47.399Z,96769.56
2023-03-22T14:08:29.298Z,96783.38
2023-03-22T14:11:07.572Z,96765.22
2023-03-22T14:13:46.813Z,96775.56
2023-03-22T14:16:40.440Z,96788.34
2023-03-22T14:19:11.689Z,96778.34
2023-03-22T14:21:41.853Z,96790.25
